createdAt,value
2023-04-18T00:04:15.019Z,10.98
2023-04-18T00:09:18.413Z,10.96
2023-04-18T00:14:23.284Z,10.96
2023-04-18T00:19:26.386Z,10.95
2023-04-18T00:24:29.476Z,10.94
2023-04-18T00:29:32.426Z,10.97
2023-04-18T00:34:35.692Z,10.99
2023-04-18T00:39:38.636Z,10.96
2023-04-18T00:44:41.559Z,10.97
2023-04-18T00:49:45.783Z,10.97
2023-04-18T00:54:49.077Z,10.99
2023-04-18T00:59:52.453Z,11.03
2023-04-18T01:04:55.492Z,11.04
2023-04-18T01:09:58.825Z,11.07
2023-04-18T01:15:03.908Z,11.10
2023-04-18T01:20:07.968Z,11.08
2023-04-18T01:25:11.556Z,11.11
2023-04-18T01:30:14.534Z,11.10
2023-04-18T01:35:18.231Z,11.15
2023-04-18T01:40:21.338Z,11.20
2023-04-18T01:45:24.416Z,11.23
2023-04-18T01:50:27.948Z,11.24
2023-04-18T01:55:30.914Z,11.26
2023-04-18T02:00:34.094Z,11.22
2023-04-18T02:05:37.589Z,11.26
2023-04-18T02:10:41.817Z,11.26
2023-04-18T02:15:46.137Z,11.26
2023-04-18T02:20:49.086Z,11.28
2023-04-18T02:25:52.116Z,11.29
2023-04-18T02:30:55.990Z,11.31
2023-04-18T02:35:58.972Z,11.33
2023-04-18T02:41:02.115Z,11.34
2023-04-18T02:46:05.238Z,11.30
2023-04-18T02:51:09.458Z,11.32
2023-04-18T02:56:17.070Z,11.33
2023-04-18T03:01:20.513Z,11.35
2023-04-18T03:06:23.478Z,11.35
2023-04-18T03:11:26.583Z,11.34
2023-04-18T03:16:29.785Z,11.36
2023-04-18T03:21:32.748Z,11.38
2023-04-18T03:26:36.444Z,11.40
2023-04-18T03:31:39.540Z,11.37
2023-04-18T03:36:42.673Z,11.40
2023-04-18T03:41:45.372Z,11.41
2023-04-18T03:46:48.400Z,11.41
2023-04-18T03:51:52.188Z,11.41
2023-04-18T03:56:55.924Z,11.43
2023-04-18T04:01:58.776Z,11.43
2023-04-18T04:07:02.046Z,11.45
2023-04-18T04:12:05.611Z,11.46
2023-04-18T04:17:08.560Z,11.42
2023-04-18T04:22:11.599Z,11.41
2023-04-18T04:27:14.507Z,11.36
2023-04-18T04:32:17.478Z,11.35
2023-04-18T04:37:20.454Z,11.33
2023-04-18T04:42:25.313Z,11.29
2023-04-18T04:47:28.804Z,11.32
2023-04-18T04:52:32.761Z,11.33
2023-04-18T04:57:35.954Z,11.38
2023-04-18T05:02:39.199Z,11.43
2023-04-18T05:07:42.273Z,11.53
2023-04-18T05:12:45.311Z,11.58
2023-04-18T05:17:48.403Z,11.67
2023-04-18T05:22:51.506Z,11.75
2023-04-18T05:27:54.482Z,11.89
2023-04-18T05:32:57.427Z,12.00
2023-04-18T05:38:00.548Z,12.08
2023-04-18T05:43:03.428Z,12.14
2023-04-18T05:48:06.409Z,12.20
2023-04-18T05:53:09.893Z,12.23
2023-04-18T05:58:12.817Z,12.28
2023-04-18T06:03:16.730Z,12.29
2023-04-18T06:08:19.945Z,12.25
2023-04-18T06:13:22.860Z,12.22
2023-04-18T06:18:25.818Z,12.15
2023-04-18T06:23:28.786Z,12.12
2023-04-18T06:28:31.718Z,12.10
2023-04-18T06:33:35.572Z,12.07
2023-04-18T06:38:38.680Z,12.07
2023-04-18T06:43:52.160Z,12.07
2023-04-18T06:49:04.916Z,12.14
2023-04-18T06:54:07.868Z,12.24
2023-04-18T06:59:10.930Z,12.27
2023-04-18T07:04:14.629Z,12.30
2023-04-18T07:09:17.923Z,12.30
2023-04-18T07:14:24.927Z,12.36
2023-04-18T07:19:28.421Z,12.48
2023-04-18T07:24:31.572Z,12.54
2023-04-18T07:29:34.514Z,12.71
2023-04-18T07:34:37.773Z,12.89
2023-04-18T07:39:41.354Z,13.05
2023-04-18T07:44:44.664Z,13.09
2023-04-18T07:49:47.624Z,13.12
2023-04-18T07:54:51.310Z,13.15
2023-04-18T07:59:54.477Z,13.26
2023-04-18T08:04:58.522Z,13.38
2023-04-18T08:10:01.772Z,13.44
2023-04-18T08:15:05.812Z,13.63
2023-04-18T08:20:09.132Z,13.97
2023-04-18T08:25:12.418Z,14.22
2023-04-18T08:30:15.926Z,14.23
2023-04-18T08:35:18.914Z,14.22
2023-04-18T08:40:22.108Z,14.22
2023-04-18T08:45:25.024Z,14.40
2023-04-18T08:50:28.040Z,14.60
2023-04-18T08:55:31.094Z,14.84
2023-04-18T09:00:34.287Z,14.81
2023-04-18T09:05:38.543Z,14.79
2023-04-18T09:10:43.053Z,14.90
2023-04-18T09:15:56.176Z,15.17
2023-04-18T09:21:20.117Z,15.51
2023-04-18T09:26:36.345Z,15.97
2023-04-18T09:32:01.599Z,16.35
2023-04-18T09:37:13.588Z,16.77
2023-04-18T09:42:18.268Z,16.92
2023-04-18T09:47:21.218Z,16.91
2023-04-18T09:52:28.254Z,16.73
2023-04-18T09:57:34.677Z,16.64
2023-04-18T10:02:50.538Z,16.69
2023-04-18T10:07:55.120Z,16.70
2023-04-18T10:13:00.271Z,16.81
2023-04-18T10:18:24.756Z,16.84
2023-04-18T10:23:37.195Z,16.92
2023-04-18T10:28:53.469Z,16.95
2023-04-18T10:34:05.316Z,16.93
2023-04-18T10:39:23.765Z,17.08
2023-04-18T10:44:27.659Z,17.25
2023-04-18T10:49:33.769Z,17.36
2023-04-18T10:54:38.152Z,17.17
2023-04-18T10:59:50.337Z,17.09
2023-04-18T11:04:58.817Z,17.20
2023-04-18T11:10:02.423Z,17.36
2023-04-18T11:15:25.783Z,17.64
2023-04-18T11:20:37.289Z,17.88
2023-04-18T11:25:40.646Z,17.94
2023-04-18T11:30:43.526Z,18.04
2023-04-18T11:35:49.290Z,18.05
2023-04-18T11:40:52.481Z,17.97
2023-04-18T11:45:58.268Z,18.04
2023-04-18T11:51:01.450Z,18.16
2023-04-18T11:56:05.994Z,18.30
2023-04-18T12:01:24.921Z,18.65
2023-04-18T12:06:29.728Z,19.80
2023-04-18T12:11:32.952Z,20.78
2023-04-18T12:16:36.033Z,21.05
2023-04-18T12:22:00.670Z,21.03
2023-04-18T12:27:04.013Z,20.95
2023-04-18T12:32:06.871Z,20.36
2023-04-18T12:37:10.060Z,20.03
2023-04-18T12:42:13.097Z,19.55
2023-04-18T12:47:15.967Z,19.88
2023-04-18T12:52:18.877Z,20.52
2023-04-18T12:57:22.205Z,20.43
2023-04-18T13:02:26.614Z,20.00
2023-04-18T13:07:29.770Z,19.58
2023-04-18T13:12:32.947Z,19.82
2023-04-18T13:17:36.971Z,20.46
2023-04-18T13:22:41.605Z,21.13
2023-04-18T13:27:45.952Z,21.49
2023-04-18T13:32:48.930Z,21.80
2023-04-18T13:37:51.937Z,21.59
2023-04-18T13:42:54.952Z,22.25
2023-04-18T13:47:57.797Z,22.34
2023-04-18T13:53:00.725Z,22.48
2023-04-18T13:58:03.640Z,22.73
2023-04-18T14:03:07.177Z,22.60
2023-04-18T14:08:10.404Z,22.43
2023-04-18T14:13:13.354Z,22.03
2023-04-18T14:18:21.496Z,22.42
2023-04-18T14:23:25.956Z,22.44
2023-04-18T14:28:29.068Z,21.87
2023-04-18T14:33:35.854Z,21.88
2023-04-18T14:38:38.777Z,22.01
2023-04-18T14:43:41.729Z,21.86
2023-04-18T14:48:46.880Z,22.13
2023-04-18T14:53:50.009Z,22.23
2023-04-18T14:58:52.872Z,22.38
2023-04-18T15:03:55.985Z,22.34
2023-04-18T15:08:58.925Z,22.54
2023-04-18T15:14:01.894Z,22.77
2023-04-18T15:19:04.806Z,22.45
2023-04-18T15:24:08.251Z,22.59
2023-04-18T15:29:11.651Z,22.32
2023-04-18T15:34:16.212Z,22.30
2023-04-18T15:39:23.255Z,21.77
2023-04-18T15:44:26.694Z,21.03
2023-04-18T15:49:29.631Z,20.61
2023-04-18T15:54:33.016Z,20.46
2023-04-18T15:59:36.361Z,19.77
2023-04-18T16:04:39.836Z,19.24
2023-04-18T16:09:42.603Z,18.87
2023-04-18T16:14:45.647Z,18.45
2023-04-18T16:19:48.800Z,18.15
2023-04-18T16:24:51.832Z,17.91
2023-04-18T16:29:55.254Z,17.61
2023-04-18T16:34:58.230Z,17.54
2023-04-18T16:40:01.308Z,17.46
2023-04-18T16:45:04.801Z,17.16
2023-04-18T16:50:09.449Z,16.91
2023-04-18T16:55:12.474Z,16.70
2023-04-18T17:00:16.630Z,16.52
2023-04-18T17:05:19.702Z,16.40
2023-04-18T17:10:22.797Z,16.26
2023-04-18T17:15:27.303Z,16.09
2023-04-18T17:20:30.221Z,15.91
2023-04-18T17:25:33.233Z,15.74
2023-04-18T17:30:42.717Z,15.56
2023-04-18T17:35:46.036Z,15.34
2023-04-18T17:40:49.003Z,15.16
2023-04-18T17:45:52.126Z,14.99
2023-04-18T17:50:55.167Z,14.81
2023-04-18T17:56:01.263Z,14.67
2023-04-18T18:01:04.274Z,14.48
2023-04-18T18:06:07.758Z,14.30
2023-04-18T18:11:10.914Z,14.14
2023-04-18T18:16:14.114Z,13.99
2023-04-18T18:21:18.249Z,13.85
2023-04-18T18:26:21.349Z,13.74
2023-04-18T18:31:25.028Z,13.63
2023-04-18T18:36:28.568Z,13.55
2023-04-18T18:41:31.589Z,13.49
2023-04-18T18:46:35.491Z,13.42
2023-04-18T18:51:38.610Z,13.36
2023-04-18T18:56:42.737Z,13.29
2023-04-18T19:01:45.829Z,13.23
2023-04-18T19:06:49.063Z,13.14
2023-04-18T19:11:52.133Z,13.12
2023-04-18T19:16:56.002Z,13.21
2023-04-18T19:22:01.177Z,13.28
2023-04-18T19:27:04.455Z,13.38
2023-04-18T19:32:07.547Z,13.43
2023-04-18T19:37:10.705Z,13.48
2023-04-18T19:42:13.843Z,13.54
2023-04-18T19:47:17.002Z,13.55
2023-04-18T19:52:20.014Z,13.56
2023-04-18T19:57:23.040Z,13.56
2023-04-18T20:02:26.271Z,13.53
2023-04-18T20:07:30.752Z,13.46
2023-04-18T20:12:34.328Z,13.45
2023-04-18T20:17:37.379Z,13.44
2023-04-18T20:22:41.865Z,13.41
2023-04-18T20:27:44.886Z,13.32
2023-04-18T20:32:47.889Z,13.21
2023-04-18T20:37:50.903Z,13.08
2023-04-18T20:42:57.897Z,12.96
2023-04-18T20:48:04.025Z,12.89
2023-04-18T20:53:07.066Z,12.85
2023-04-18T20:58:10.090Z,12.86
2023-04-18T21:03:14.064Z,12.90
2023-04-18T21:08:17.114Z,12.92
2023-04-18T21:13:20.151Z,12.94
2023-04-18T21:18:23.691Z,12.91
2023-04-18T21:23:26.622Z,12.89
2023-04-18T21:28:29.620Z,12.86
2023-04-18T21:33:32.372Z,12.80
2023-04-18T21:38:35.709Z,12.77
2023-04-18T21:43:38.650Z,12.71
2023-04-18T21:48:44.190Z,12.68
2023-04-18T21:53:47.342Z,12.65
2023-04-18T21:58:50.673Z,12.62
2023-04-18T22:03:53.893Z,12.58
2023-04-18T22:08:58.326Z,12.53
2023-04-18T22:14:01.774Z,12.48
2023-04-18T22:19:05.837Z,12.46
2023-04-18T22:24:09.367Z,12.40
2023-04-18T22:29:12.249Z,12.37
2023-04-18T22:34:15.499Z,12.36
2023-04-18T22:39:18.818Z,12.36
2023-04-18T22:44:21.823Z,12.38
2023-04-18T22:49:24.682Z,12.40
2023-04-18T22:54:27.706Z,12.42
2023-04-18T22:59:30.914Z,12.44
2023-04-18T23:04:34.240Z,12.42
2023-04-18T23:09:37.183Z,12.42
2023-04-18T23:14:41.805Z,12.44
2023-04-18T23:19:45.353Z,12.42
2023-04-18T23:24:48.200Z,12.40
2023-04-18T23:29:51.078Z,12.39
2023-04-18T23:34:54.175Z,12.36
2023-04-18T23:39:58.083Z,12.38
2023-04-18T23:45:06.072Z,12.39
2023-04-18T23:50:09.712Z,12.40
2023-04-18T23:55:12.762Z,12.38
